createdAt,value
2019-01-30T00:01:33.832Z,68.02
2019-01-30T00:04:01.038Z,67.82
2019-01-30T00:06:28.260Z,68.66
2019-01-30T00:08:55.524Z,68.43
2019-01-30T00:11:22.752Z,68.58
2019-01-30T00:13:49.950Z,68.44
2019-01-30T00:16:17.207Z,68.26
2019-01-30T00:18:44.416Z,68.29
2019-01-30T00:21:11.677Z,68.45
2019-01-30T00:23:38.882Z,68.43
2019-01-30T00:26:06.335Z,68.74
2019-01-30T00:28:33.600Z,68.63
2019-01-30T00:31:00.812Z,68.99
2019-01-30T00:33:28.271Z,69.18
2019-01-30T00:35:55.561Z,68.83
2019-01-30T00:38:22.866Z,68.87
2019-01-30T00:40:50.116Z,68.60
2019-01-30T00:43:17.360Z,68.91
2019-01-30T00:45:44.591Z,68.85
2019-01-30T00:48:11.814Z,68.55
2019-01-30T00:50:39.076Z,68.51
2019-01-30T00:53:06.299Z,67.75
2019-01-30T00:55:33.571Z,68.96
2019-01-30T00:58:00.845Z,68.79
2019-01-30T01:00:28.511Z,68.56
2019-01-30T01:02:55.839Z,68.59
2019-01-30T01:05:23.083Z,68.54
2019-01-30T01:07:50.512Z,68.42
2019-01-30T01:10:18.072Z,68.85
2019-01-30T01:12:45.524Z,68.95
2019-01-30T01:15:13.537Z,68.82
2019-01-30T01:17:40.737Z,69.03
2019-01-30T01:20:10.107Z,69.25
2019-01-30T01:22:37.463Z,70.18
2019-01-30T01:25:06.503Z,70.46
2019-01-30T01:27:33.758Z,70.31
2019-01-30T01:30:01.159Z,70.06
2019-01-30T01:32:28.439Z,70.11
2019-01-30T01:34:56.834Z,70.24
2019-01-30T01:37:24.135Z,71.37
2019-01-30T01:39:51.374Z,70.91
2019-01-30T01:42:18.687Z,71.33
2019-01-30T01:44:45.943Z,71.01
2019-01-30T01:47:13.263Z,70.74
2019-01-30T01:49:40.514Z,71.01
2019-01-30T01:52:07.752Z,71.18
2019-01-30T01:54:35.006Z,70.95
2019-01-30T01:57:02.260Z,70.86
2019-01-30T01:59:29.470Z,71.20
2019-01-30T02:01:56.694Z,71.43
2019-01-30T02:04:23.937Z,71.72
2019-01-30T02:06:51.141Z,71.24
2019-01-30T02:09:18.353Z,71.36
2019-01-30T02:11:45.611Z,70.99
2019-01-30T02:14:12.826Z,71.07
2019-01-30T02:16:40.047Z,70.98
2019-01-30T02:19:07.292Z,71.50
2019-01-30T02:21:34.524Z,71.21
2019-01-30T02:24:01.861Z,71.53
2019-01-30T02:26:29.102Z,71.70
2019-01-30T02:28:56.311Z,71.39
2019-01-30T02:31:23.579Z,71.49
2019-01-30T02:33:50.833Z,71.55
2019-01-30T02:36:18.059Z,71.44
2019-01-30T02:38:45.276Z,71.49
2019-01-30T02:41:12.523Z,71.66
2019-01-30T02:43:39.748Z,71.02
2019-01-30T02:46:07.140Z,71.05
2019-01-30T02:48:34.366Z,71.26
2019-01-30T02:51:01.604Z,71.25
2019-01-30T02:53:28.857Z,71.00
2019-01-30T02:55:56.070Z,70.78
2019-01-30T02:58:23.297Z,70.78
2019-01-30T03:00:58.798Z,71.23
2019-01-30T03:03:19.752Z,71.41
2019-01-30T03:05:46.953Z,71.29
2019-01-30T03:08:14.191Z,70.93
2019-01-30T03:10:41.412Z,70.94
2019-01-30T03:13:08.607Z,70.67
2019-01-30T03:15:35.869Z,70.89
2019-01-30T03:18:03.177Z,70.52
2019-01-30T03:20:30.438Z,70.07
2019-01-30T03:22:57.668Z,70.86
2019-01-30T03:25:25.008Z,70.46
2019-01-30T03:27:52.434Z,71.18
2019-01-30T03:30:27.730Z,70.78
2019-01-30T03:32:54.987Z,70.61
2019-01-30T03:35:22.375Z,70.81
2019-01-30T03:37:49.631Z,70.40
2019-01-30T03:40:17.598Z,70.86
2019-01-30T03:42:44.828Z,70.88
2019-01-30T03:45:12.897Z,71.06
2019-01-30T03:47:40.100Z,71.41
2019-01-30T03:50:08.495Z,71.17
2019-01-30T03:52:35.816Z,71.27
2019-01-30T03:55:03.228Z,71.84
2019-01-30T03:57:30.480Z,72.57
2019-01-30T03:59:57.696Z,72.35
2019-01-30T04:02:24.879Z,72.31
2019-01-30T04:04:52.136Z,72.14
2019-01-30T04:07:19.343Z,72.06
2019-01-30T04:09:46.531Z,72.07
2019-01-30T04:12:13.789Z,72.01
2019-01-30T04:14:41.056Z,72.08
2019-01-30T04:17:08.273Z,72.31
2019-01-30T04:19:35.497Z,72.13
2019-01-30T04:22:02.773Z,72.33
2019-01-30T04:24:29.973Z,72.29
2019-01-30T04:26:57.179Z,72.45
2019-01-30T04:29:24.453Z,72.35
2019-01-30T04:31:51.673Z,72.42
2019-01-30T04:34:18.964Z,72.38
2019-01-30T04:36:46.203Z,72.03
2019-01-30T04:39:13.488Z,72.43
2019-01-30T04:41:40.749Z,72.31
2019-01-30T04:44:07.944Z,72.18
2019-01-30T04:46:35.170Z,72.15
2019-01-30T04:49:02.417Z,71.88
2019-01-30T04:51:29.617Z,72.20
2019-01-30T04:53:56.824Z,71.83
2019-01-30T04:56:24.066Z,72.10
2019-01-30T04:58:51.273Z,72.23
2019-01-30T05:01:18.495Z,72.63
2019-01-30T05:03:45.760Z,73.12
2019-01-30T05:06:12.963Z,73.21
2019-01-30T05:08:40.210Z,72.65
2019-01-30T05:11:07.471Z,72.63
2019-01-30T05:13:34.701Z,72.66
2019-01-30T05:16:01.916Z,72.56
2019-01-30T05:18:29.156Z,72.36
2019-01-30T05:20:56.364Z,72.24
2019-01-30T05:23:23.580Z,72.55
2019-01-30T05:25:50.846Z,72.77
2019-01-30T05:28:18.064Z,72.75
2019-01-30T05:30:45.295Z,72.47
2019-01-30T05:33:12.537Z,72.40
2019-01-30T05:35:43.179Z,72.73
2019-01-30T05:38:11.244Z,72.67
2019-01-30T05:40:38.494Z,72.70
2019-01-30T05:43:05.699Z,72.13
2019-01-30T05:45:32.905Z,72.65
2019-01-30T05:48:00.167Z,73.00
2019-01-30T05:50:27.389Z,72.69
2019-01-30T05:52:54.618Z,72.95
2019-01-30T05:55:21.981Z,72.84
2019-01-30T05:57:49.218Z,72.92
2019-01-30T06:00:26.505Z,73.18
2019-01-30T06:02:53.718Z,73.11
2019-01-30T06:05:20.944Z,72.87
2019-01-30T06:07:48.308Z,73.12
2019-01-30T06:10:15.564Z,73.30
2019-01-30T06:12:42.787Z,73.39
2019-01-30T06:15:11.237Z,73.06
2019-01-30T06:17:38.475Z,72.99
2019-01-30T06:20:08.212Z,73.18
2019-01-30T06:22:35.479Z,73.40
2019-01-30T06:25:02.809Z,73.80
2019-01-30T06:27:30.021Z,73.60
2019-01-30T06:29:57.310Z,73.91
2019-01-30T06:32:24.530Z,73.95
2019-01-30T06:34:51.901Z,74.53
2019-01-30T06:37:19.171Z,73.97
2019-01-30T06:39:46.388Z,73.73
2019-01-30T06:42:13.632Z,73.74
2019-01-30T06:44:40.924Z,73.75
2019-01-30T06:47:08.135Z,73.74
2019-01-30T06:49:35.343Z,74.37
2019-01-30T06:52:02.636Z,73.95
2019-01-30T06:54:29.858Z,73.78
2019-01-30T06:56:57.079Z,73.65
2019-01-30T06:59:24.390Z,73.84
2019-01-30T07:01:51.607Z,73.48
2019-01-30T07:04:18.813Z,73.62
2019-01-30T07:06:46.165Z,73.78
2019-01-30T07:09:13.476Z,74.01
2019-01-30T07:11:40.714Z,74.14
2019-01-30T07:14:07.975Z,74.03
2019-01-30T07:16:35.240Z,74.00
2019-01-30T07:19:02.440Z,73.98
2019-01-30T07:21:29.698Z,74.18
2019-01-30T07:23:56.907Z,73.97
2019-01-30T07:26:24.149Z,73.79
2019-01-30T07:28:51.416Z,73.66
2019-01-30T07:31:19.305Z,73.60
2019-01-30T07:33:46.636Z,73.59
2019-01-30T07:36:13.920Z,73.33
2019-01-30T07:38:41.184Z,73.36
2019-01-30T07:41:08.393Z,73.41
2019-01-30T07:43:35.625Z,73.09
2019-01-30T07:46:03.097Z,73.16
2019-01-30T07:48:30.401Z,73.29
2019-01-30T07:50:57.632Z,73.10
2019-01-30T07:53:24.926Z,72.94
2019-01-30T07:55:52.143Z,72.78
2019-01-30T07:58:19.398Z,72.93
2019-01-30T08:00:46.646Z,72.73
2019-01-30T08:03:13.970Z,72.95
2019-01-30T08:05:41.255Z,73.29
2019-01-30T08:08:08.475Z,73.61
2019-01-30T08:10:35.706Z,73.27
2019-01-30T08:13:03.674Z,73.22
2019-01-30T08:15:30.892Z,73.64
2019-01-30T08:17:58.116Z,73.55
2019-01-30T08:20:25.400Z,73.76
2019-01-30T08:22:52.653Z,72.87
2019-01-30T08:25:21.887Z,73.37
2019-01-30T08:27:49.632Z,72.88
2019-01-30T08:30:23.499Z,72.95
2019-01-30T08:32:51.400Z,72.62
2019-01-30T08:35:19.525Z,72.31
2019-01-30T08:37:46.784Z,72.39
2019-01-30T08:40:14.199Z,72.01
2019-01-30T08:42:41.486Z,72.25
2019-01-30T08:45:20.707Z,72.42
2019-01-30T08:47:47.979Z,72.36
2019-01-30T08:50:15.338Z,72.53
2019-01-30T08:52:42.867Z,72.34
2019-01-30T08:55:10.364Z,72.07
2019-01-30T08:57:37.708Z,71.87
2019-01-30T09:00:07.513Z,71.75
2019-01-30T09:02:34.792Z,72.30
2019-01-30T09:05:02.013Z,72.56
2019-01-30T09:07:29.243Z,72.04
2019-01-30T09:09:56.518Z,71.75
2019-01-30T09:12:23.713Z,71.50
2019-01-30T09:14:50.936Z,71.98
2019-01-30T09:17:18.220Z,71.92
2019-01-30T09:19:45.460Z,71.93
2019-01-30T09:22:12.701Z,72.08
2019-01-30T09:24:39.974Z,72.44
2019-01-30T09:27:07.201Z,72.90
2019-01-30T09:29:34.405Z,72.43
2019-01-30T09:32:01.711Z,72.11
2019-01-30T09:34:28.906Z,71.75
2019-01-30T09:36:56.244Z,71.96
2019-01-30T09:39:23.473Z,71.40
2019-01-30T09:41:50.706Z,71.80
2019-01-30T09:44:17.935Z,71.25
2019-01-30T09:46:45.200Z,70.91
2019-01-30T09:49:12.464Z,70.46
2019-01-30T09:51:39.654Z,70.40
2019-01-30T09:54:07.066Z,70.32
2019-01-30T09:56:34.349Z,70.35
2019-01-30T09:59:01.543Z,70.29
2019-01-30T10:01:28.794Z,69.76
2019-01-30T10:03:56.019Z,70.02
2019-01-30T10:06:23.243Z,69.68
2019-01-30T10:08:50.521Z,70.67
2019-01-30T10:11:17.746Z,70.84
2019-01-30T10:13:44.971Z,70.60
2019-01-30T10:16:12.239Z,70.77
2019-01-30T10:18:39.469Z,70.71
2019-01-30T10:21:06.786Z,70.74
2019-01-30T10:23:34.051Z,70.20
2019-01-30T10:26:01.283Z,70.52
2019-01-30T10:28:28.517Z,70.55
2019-01-30T10:30:55.790Z,71.57
2019-01-30T10:33:23.043Z,71.08
2019-01-30T10:35:50.296Z,71.08
2019-01-30T10:38:17.584Z,70.81
2019-01-30T10:40:44.876Z,71.02
2019-01-30T10:43:12.350Z,71.37
2019-01-30T10:45:39.571Z,70.58
2019-01-30T10:48:06.794Z,70.10
2019-01-30T10:50:34.156Z,70.21
2019-01-30T10:53:01.365Z,70.47
2019-01-30T10:55:30.235Z,70.57
2019-01-30T10:57:59.169Z,70.90
2019-01-30T11:00:28.907Z,70.43
2019-01-30T11:02:56.165Z,70.52
2019-01-30T11:05:24.303Z,69.75
2019-01-30T11:07:51.615Z,69.54
2019-01-30T11:10:19.193Z,69.43
2019-01-30T11:12:46.380Z,69.69
2019-01-30T11:15:15.745Z,69.39
2019-01-30T11:17:43.109Z,69.84
2019-01-30T11:20:12.034Z,69.85
2019-01-30T11:22:39.266Z,69.13
2019-01-30T11:25:09.870Z,70.03
2019-01-30T11:27:37.180Z,69.41
2019-01-30T11:30:05.585Z,70.01
2019-01-30T11:32:32.875Z,69.03
2019-01-30T11:35:00.291Z,69.67
2019-01-30T11:37:27.533Z,69.94
2019-01-30T11:39:54.746Z,69.78
2019-01-30T11:42:21.989Z,69.56
2019-01-30T11:44:49.304Z,69.26
2019-01-30T11:47:16.519Z,68.61
2019-01-30T11:49:43.718Z,68.69
2019-01-30T11:52:11.084Z,68.53
2019-01-30T11:54:39.082Z,68.46
2019-01-30T11:57:06.582Z,68.22
2019-01-30T11:59:33.801Z,68.54
2019-01-30T12:02:01.175Z,67.75
2019-01-30T12:04:28.403Z,68.08
2019-01-30T12:06:55.631Z,68.18
2019-01-30T12:09:22.929Z,68.35
2019-01-30T12:11:50.148Z,68.31
2019-01-30T12:14:17.396Z,68.56
2019-01-30T12:16:44.703Z,68.33
2019-01-30T12:19:12.013Z,68.32
2019-01-30T12:21:39.257Z,68.37
2019-01-30T12:24:06.529Z,68.21
2019-01-30T12:26:33.748Z,67.82
2019-01-30T12:29:00.960Z,67.83
2019-01-30T12:31:28.206Z,67.55
2019-01-30T12:33:55.414Z,67.39
2019-01-30T12:36:22.714Z,67.52
2019-01-30T12:38:50.370Z,67.28
2019-01-30T12:41:17.614Z,68.10
2019-01-30T12:43:45.381Z,68.35
2019-01-30T12:46:12.864Z,68.95
2019-01-30T12:48:40.083Z,68.18
2019-01-30T12:51:07.300Z,68.54
2019-01-30T12:53:34.935Z,68.42
2019-01-30T12:56:03.585Z,68.46
2019-01-30T12:58:30.854Z,68.31
2019-01-30T13:00:58.135Z,67.74
2019-01-30T13:03:25.392Z,68.18
2019-01-30T13:05:52.609Z,67.79
2019-01-30T13:08:19.871Z,68.30
2019-01-30T13:10:47.139Z,68.26
2019-01-30T13:13:14.402Z,68.64
2019-01-30T13:15:41.692Z,69.53
2019-01-30T13:18:18.152Z,68.55
2019-01-30T13:20:38.052Z,68.71
2019-01-30T13:23:05.314Z,68.75
2019-01-30T13:25:33.255Z,68.51
2019-01-30T13:28:00.515Z,67.97
2019-01-30T13:30:33.200Z,68.45
2019-01-30T13:33:00.873Z,68.87
2019-01-30T13:35:28.368Z,69.85
2019-01-30T13:37:55.671Z,68.96
2019-01-30T13:40:25.868Z,69.25
2019-01-30T13:42:53.260Z,68.76
2019-01-30T13:45:20.607Z,69.33
2019-01-30T13:47:47.914Z,68.59
2019-01-30T13:50:17.734Z,68.79
2019-01-30T13:52:44.951Z,68.08
2019-01-30T13:55:12.909Z,67.48
2019-01-30T13:57:40.280Z,68.02
2019-01-30T14:00:17.335Z,68.40
2019-01-30T14:02:44.725Z,68.28
2019-01-30T14:05:12.096Z,67.68
2019-01-30T14:07:39.470Z,67.79
2019-01-30T14:10:06.922Z,67.61
2019-01-30T14:12:34.199Z,67.28
2019-01-30T14:15:01.433Z,67.14
2019-01-30T14:17:28.711Z,68.18
2019-01-30T14:19:55.966Z,68.90
2019-01-30T14:22:23.223Z,69.35
2019-01-30T14:24:50.452Z,69.41
2019-01-30T14:27:17.715Z,69.29
2019-01-30T14:29:44.937Z,69.13
2019-01-30T14:32:14.917Z,69.08
2019-01-30T14:34:41.355Z,69.12
2019-01-30T14:37:08.796Z,69.06
2019-01-30T14:39:36.091Z,69.36
2019-01-30T14:42:03.463Z,69.91
2019-01-30T14:44:32.076Z,70.02
2019-01-30T14:46:59.411Z,69.59
2019-01-30T14:49:26.629Z,69.50
2019-01-30T14:51:53.910Z,69.44
2019-01-30T14:54:21.144Z,69.50
2019-01-30T14:56:48.413Z,69.92
2019-01-30T14:59:15.677Z,69.49
2019-01-30T15:01:42.912Z,69.71
2019-01-30T15:04:10.218Z,69.56
2019-01-30T15:06:37.480Z,69.54
2019-01-30T15:09:08.353Z,69.95
2019-01-30T15:11:35.602Z,69.90
2019-01-30T15:14:02.839Z,70.35
2019-01-30T15:16:30.088Z,70.77
2019-01-30T15:18:57.332Z,70.46
2019-01-30T15:21:24.627Z,70.20
2019-01-30T15:23:51.913Z,69.76
2019-01-30T15:26:19.177Z,69.54
2019-01-30T15:28:46.406Z,70.37
2019-01-30T15:31:13.757Z,70.53
2019-01-30T15:33:41.176Z,70.05
2019-01-30T15:36:08.465Z,70.44
2019-01-30T15:38:35.809Z,70.02
2019-01-30T15:41:03.336Z,70.47
2019-01-30T15:43:30.593Z,70.57
2019-01-30T15:45:57.831Z,70.03
2019-01-30T15:48:25.107Z,69.77
2019-01-30T15:50:52.359Z,70.01
2019-01-30T15:53:21.457Z,69.70
2019-01-30T15:55:48.895Z,70.23
2019-01-30T15:58:16.169Z,70.35
2019-01-30T16:01:14.743Z,70.33
2019-01-30T16:03:41.968Z,70.80
2019-01-30T16:06:09.248Z,70.86
2019-01-30T16:08:36.566Z,70.81
2019-01-30T16:11:03.942Z,70.89
2019-01-30T16:13:31.186Z,70.62
2019-01-30T16:16:00.839Z,70.67
2019-01-30T16:18:28.294Z,70.01
2019-01-30T16:20:55.513Z,70.13
2019-01-30T16:23:22.907Z,70.27
2019-01-30T16:25:50.130Z,70.01
2019-01-30T16:28:17.352Z,70.50
2019-01-30T16:30:44.621Z,71.08
2019-01-30T16:33:11.873Z,71.10
2019-01-30T16:35:39.125Z,70.92
2019-01-30T16:38:06.695Z,71.24
2019-01-30T16:40:34.005Z,70.52
2019-01-30T16:43:01.244Z,70.55
2019-01-30T16:45:28.540Z,70.56
2019-01-30T16:47:55.749Z,70.37
2019-01-30T16:50:23.136Z,70.50
2019-01-30T16:52:50.485Z,70.47
2019-01-30T16:55:17.899Z,70.51
2019-01-30T16:57:45.309Z,69.93
2019-01-30T17:00:16.502Z,70.53
2019-01-30T17:02:43.730Z,70.42
2019-01-30T17:05:12.501Z,70.00
2019-01-30T17:07:39.870Z,69.83
2019-01-30T17:10:08.431Z,69.81
2019-01-30T17:12:35.645Z,69.85
2019-01-30T17:15:03.931Z,69.84
2019-01-30T17:17:31.138Z,69.79
2019-01-30T17:19:58.381Z,69.70
2019-01-30T17:22:25.628Z,69.70
2019-01-30T17:24:52.839Z,69.71
2019-01-30T17:27:20.060Z,69.67
2019-01-30T17:29:47.319Z,69.62
2019-01-30T17:32:14.575Z,69.84
2019-01-30T17:34:41.893Z,69.78
2019-01-30T17:37:09.637Z,69.78
2019-01-30T17:39:37.064Z,69.71
2019-01-30T17:42:04.439Z,69.68
2019-01-30T17:44:31.664Z,69.68
2019-01-30T17:46:58.940Z,69.67
2019-01-30T17:49:26.166Z,69.56
2019-01-30T17:51:54.351Z,69.61
2019-01-30T17:54:21.640Z,69.52
2019-01-30T17:56:48.870Z,69.44
2019-01-30T17:59:16.106Z,69.38
2019-01-30T18:01:43.376Z,69.21
2019-01-30T18:04:10.594Z,69.26
2019-01-30T18:06:37.805Z,69.24
2019-01-30T18:09:08.092Z,69.15
2019-01-30T18:11:35.323Z,69.08
2019-01-30T18:14:02.732Z,69.03
2019-01-30T18:16:30.005Z,69.04
2019-01-30T18:18:57.223Z,69.02
2019-01-30T18:21:24.442Z,68.96
2019-01-30T18:23:51.710Z,68.96
2019-01-30T18:26:19.047Z,68.97
2019-01-30T18:28:47.965Z,68.96
2019-01-30T18:31:15.501Z,68.94
2019-01-30T18:33:42.733Z,69.03
2019-01-30T18:36:09.988Z,68.97
2019-01-30T18:38:37.268Z,69.12
2019-01-30T18:41:04.567Z,69.18
2019-01-30T18:43:34.881Z,69.14
2019-01-30T18:46:02.118Z,69.05
2019-01-30T18:48:29.351Z,68.93
2019-01-30T18:50:57.044Z,69.21
2019-01-30T18:53:24.405Z,69.20
2019-01-30T18:55:51.646Z,69.15
2019-01-30T18:58:18.877Z,69.12
2019-01-30T19:00:46.133Z,69.09
2019-01-30T19:03:17.648Z,69.09
2019-01-30T19:05:44.950Z,69.17
2019-01-30T19:08:12.680Z,69.79
2019-01-30T19:10:39.923Z,70.00
2019-01-30T19:13:07.138Z,69.88
2019-01-30T19:15:34.383Z,70.00
2019-01-30T19:18:01.652Z,69.96
2019-01-30T19:20:31.430Z,69.91
2019-01-30T19:22:58.770Z,69.90
2019-01-30T19:25:26.004Z,69.96
2019-01-30T19:27:56.055Z,69.97
2019-01-30T19:30:26.902Z,70.88
2019-01-30T19:32:54.390Z,71.28
2019-01-30T19:35:21.775Z,71.12
2019-01-30T19:37:48.995Z,71.04
2019-01-30T19:40:16.551Z,71.01
2019-01-30T19:42:43.897Z,71.03
2019-01-30T19:45:12.561Z,71.17
2019-01-30T19:47:39.775Z,71.40
2019-01-30T19:50:19.255Z,71.34
2019-01-30T19:52:46.568Z,71.29
2019-01-30T19:55:15.015Z,71.22
2019-01-30T19:57:42.381Z,71.20
2019-01-30T20:00:16.417Z,71.21
2019-01-30T20:02:43.695Z,71.56
2019-01-30T20:05:11.764Z,71.56
2019-01-30T20:07:39.294Z,71.66
2019-01-30T20:10:10.096Z,71.84
2019-01-30T20:12:37.325Z,71.82
2019-01-30T20:15:05.839Z,71.83
2019-01-30T20:17:33.115Z,71.79
2019-01-30T20:20:00.350Z,71.64
2019-01-30T20:22:27.597Z,71.52
2019-01-30T20:24:54.890Z,71.66
2019-01-30T20:27:22.111Z,71.62
2019-01-30T20:29:49.342Z,71.58
2019-01-30T20:32:16.616Z,71.50
2019-01-30T20:34:43.837Z,71.48
2019-01-30T20:37:11.046Z,71.43
2019-01-30T20:39:38.325Z,71.37
2019-01-30T20:42:05.680Z,71.38
2019-01-30T20:44:32.920Z,71.32
2019-01-30T20:47:00.215Z,71.30
2019-01-30T20:49:27.424Z,71.27
2019-01-30T20:51:54.673Z,71.26
2019-01-30T20:54:21.927Z,71.24
2019-01-30T20:56:49.181Z,71.21
2019-01-30T20:59:16.435Z,71.15
2019-01-30T21:01:43.668Z,71.15
2019-01-30T21:04:10.913Z,71.21
2019-01-30T21:06:38.196Z,71.26
2019-01-30T21:09:07.699Z,71.31
2019-01-30T21:11:34.943Z,71.32
2019-01-30T21:14:02.203Z,71.29
2019-01-30T21:16:29.423Z,71.21
2019-01-30T21:18:56.715Z,71.16
2019-01-30T21:21:23.978Z,71.12
2019-01-30T21:23:51.231Z,71.10
2019-01-30T21:26:18.619Z,71.06
2019-01-30T21:28:45.863Z,71.02
2019-01-30T21:31:13.143Z,71.27
2019-01-30T21:33:40.388Z,71.73
2019-01-30T21:36:07.610Z,71.59
2019-01-30T21:38:34.838Z,71.43
2019-01-30T21:41:02.199Z,71.37
2019-01-30T21:43:29.542Z,71.28
2019-01-30T21:45:56.782Z,71.19
2019-01-30T21:48:25.330Z,71.12
2019-01-30T21:50:52.605Z,71.02
2019-01-30T21:53:19.850Z,70.99
2019-01-30T21:55:47.121Z,70.80
2019-01-30T21:58:14.582Z,70.90
2019-01-30T22:00:41.927Z,70.85
2019-01-30T22:03:09.270Z,70.77
2019-01-30T22:05:36.491Z,70.76
2019-01-30T22:08:04.066Z,70.68
2019-01-30T22:10:31.278Z,70.70
2019-01-30T22:12:58.537Z,70.67
2019-01-30T22:15:25.850Z,70.65
2019-01-30T22:17:53.191Z,70.72
2019-01-30T22:20:22.135Z,70.77
2019-01-30T22:22:49.546Z,70.78
2019-01-30T22:25:20.313Z,70.76
2019-01-30T22:27:46.966Z,70.76
2019-01-30T22:30:31.144Z,70.74
2019-01-30T22:32:58.366Z,70.74
2019-01-30T22:35:25.747Z,70.79
2019-01-30T22:37:53.028Z,70.79
2019-01-30T22:40:20.377Z,70.80
2019-01-30T22:42:47.725Z,70.77
2019-01-30T22:45:16.167Z,70.78
2019-01-30T22:47:43.376Z,70.83
2019-01-30T22:50:11.331Z,70.86
2019-01-30T22:52:38.579Z,70.86
2019-01-30T22:55:07.321Z,70.87
2019-01-30T22:57:34.591Z,70.90
2019-01-30T23:00:02.272Z,70.90
2019-01-30T23:02:29.601Z,70.92
2019-01-30T23:05:22.662Z,70.95
2019-01-30T23:08:03.318Z,70.99
2019-01-30T23:11:02.365Z,71.05
2019-01-30T23:13:43.493Z,71.14
2019-01-30T23:17:00.267Z,71.20
2019-01-30T23:19:47.522Z,71.29
2019-01-30T23:22:39.943Z,71.41
2019-01-30T23:25:44.853Z,71.50
2019-01-30T23:28:53.670Z,71.56
2019-01-30T23:31:54.479Z,71.64
2019-01-30T23:34:54.551Z,71.66
2019-01-30T23:38:07.217Z,71.67
2019-01-30T23:40:50.662Z,71.64
2019-01-30T23:43:55.591Z,71.61
2019-01-30T23:46:49.079Z,71.71
2019-01-30T23:49:59.374Z,71.73
2019-01-30T23:53:04.438Z,71.62
2019-01-30T23:55:45.648Z,71.94
2019-01-30T23:58:43.315Z,71.88
